メインページ
METAR-TAF:

METAR-TAF

空港 :

サーニア, オンタリオ州, カナダ

緯度: 43-00N, 経度: 082-19W, 海抜: 181m

現時点の気象観測

当レポートは51分前の02:00(UTC)に作成
北西の風 12kt、最大17ktの突風を伴う
気温 0°C
湿度 55%
気圧 1026 hPa
視程: 14.5km
高度4200ftの曇り

METAR: CYZR 070200Z AUTO 32012G17KT 9SM OVC042 M00/M08 A3029 RMK RVR MISG SLP266

時間: 21:51 (02:51 UTC)

予報

当レポートは7時間13分前の19:38(UTC)に作成
予報は06日の 20時(UTC)から 07日の 03時(UTC)まで有効
北/北西の風 12kt、最大22ktの突風を伴う
視程: 10km
高度1500ftの雲は散在している
高度5000ftの千切れ雲あり
06日の 20時(UTC)から 06日の 24時(UTC)まで一時的に
視程: 8.0km
高度1500ftの曇り
小雪, 雨, 靄
07日の 0000時(UTC)から
北/北西の風 12kt、最大22ktの突風を伴う
視程: 10km
高度3000ftの千切れ雲あり
07日の 00時(UTC)から 07日の 03時(UTC)まで一時的に
高度2000ftの千切れ雲あり

TAF: CYZR 061938Z 0620/0703 34012G22KT P6SM SCT015 BKN050 TEMPO 0620/0624 5SM -SNRA BR OVC015 FM070000 33012G22KT P6SM BKN030 TEMPO 0700/0703 BKN020 RMK FCST BASED ON AUTO OBS. NXT FCST WILL BE ISSUED AT 070845Z

4,000以上の空港の気象観測と天気予報(METAR報とTAF報)

利用可能な観測所は地図上に黄色い丸と赤い丸で示す。

丸の上にカーソルを重ねると観測所名を参照できる。

次にクリックすると気象観測と天気予報を参照できる。

マップの切り替え:黒色「×」印の緑ボタンをクリックして拡大、「-」印の緑ボタンをクリックして縮小、緑色の三角印をクリックして隣りの地図に切り替え


METAR-TAF: